Uytash Airport
URML : now visible

Airfield :











YOU CAN JOIN US ON...

 
LOGIN :

Register | Disclaimer

   EN    FR    IT 

 









Legend :    VFR   Marginal VFR   IFR   Intensive IFR   Very Intensive IFR
Visi :
Ceiling :
>= 8 km
>= 3000ft
5 to 8 km
1000 to 3000 ft
1500m to 5 km
500 to 1000 ft
800 to 1500m
200 to 500 ft
< 800m
< 200 ft
Symbols :   Thunderstorms  Fog  Heavy snow  Heavy precipitations  Wind > 20 kt






- Airport Elevation : 12 ft
- IATA code : MCX


URML - Uytash

CURRENT METAR :
  • 091730Z 33007MPS 9999 FEW///CB 29/18 Q1011 R32/01//70 NOSIG RMK QFE758/1010

EXPIRED METARs :
  • 091700Z 34007MPS 9999 FEW///CB 29/18 Q1010 R32/01//70 NOSIG RMK QFE757/1010
  • 091630Z 34007MPS 9999 FEW///CB 30/18 Q1010 R32/01//70 NOSIG RMK QFE757/1009
  • 091600Z 34007MPS 9999 FEW///CB 30/17 Q1010 R32/01//70 NOSIG RMK QFE757/1009
  • 091530Z 35006MPS 9999 FEW///CB 30/17 Q1010 R32/01//70 NOSIG RMK QFE757/1009
  • 091500Z 33010MPS 9999 FEW///CB 31/17 Q1009 R32/01//70 NOSIG RMK QFE757/1009

TAF TAF URML
Valid from the 09 at 18:00 until the 10 at 03:00 UTC


091700Z 0918/1003 32007G13MPS 9999 SCT040CB
TEMPO 0918/0924 VRB11G20MPS 6000 -TSRA SCT014 BKN040CB
URRV FIR / Europe



MET'MAP, your aeronautical weather chart ! - Copyright ORBIFLY December 2007 - Disclaimer

ORBIFLY MET'MAP TEAM :

Programming & Development : Alexandra Zaïnal
Concept & original design : Baudouin d'Aumeries
Assistance for programming : Marc-Olivier Méhu
Technical & hardware support : Manuel Goepfert

Contact : metmap@orbifly.com




SOURCES & CREDITS :

   NOAA       Earth
Advisory